sensor_id;sensor_type;location;lat;lon;timestamp;pressure;altitude;pressure_sealevel;temperature;humidity
48796;BME280;34607;48.520;-1.330;2024-03-02T07:46:10;97893.44;;;4.73;100.00
48796;BME280;34607;48.520;-1.330;2024-03-02T07:48:38;97902.00;;;4.75;100.00
48796;BME280;34607;48.520;-1.330;2024-03-02T07:51:05;97893.44;;;4.76;100.00
48796;BME280;34607;48.520;-1.330;2024-03-02T07:53:32;97894.31;;;4.73;100.00
48796;BME280;34607;48.520;-1.330;2024-03-02T07:55:59;97889.16;;;4.68;100.00
48796;BME280;34607;48.520;-1.330;2024-03-02T07:58:28;97886.59;;;4.68;100.00
48796;BME280;34607;48.520;-1.330;2024-03-02T08:00:56;97893.44;;;4.82;100.00
48796;BME280;34607;48.520;-1.330;2024-03-02T08:03:25;97892.56;;;5.09;100.00
48796;BME280;34607;48.520;-1.330;2024-03-02T08:05:52;97879.69;;;5.28;100.00
48796;BME280;34607;48.520;-1.330;2024-03-02T08:08:19;97888.22;;;5.34;100.00
48796;BME280;34607;48.520;-1.330;2024-03-02T08:10:46;97886.50;;;5.46;100.00
48796;BME280;34607;48.520;-1.330;2024-03-02T08:13:14;97886.38;;;5.75;100.00
48796;BME280;34607;48.520;-1.330;2024-03-02T08:15:41;97896.59;;;5.96;100.00
48796;BME280;34607;48.520;-1.330;2024-03-02T08:18:08;97899.09;;;6.09;100.00
48796;BME280;34607;48.520;-1.330;2024-03-02T08:20:37;97909.31;;;6.15;100.00
48796;BME280;34607;48.520;-1.330;2024-03-02T08:23:04;97910.13;;;6.28;100.00
48796;BME280;34607;48.520;-1.330;2024-03-02T08:25:31;97910.06;;;6.37;100.00
48796;BME280;34607;48.520;-1.330;2024-03-02T08:27:59;97916.81;;;6.56;100.00
48796;BME280;34607;48.520;-1.330;2024-03-02T08:30:26;97914.75;;;6.96;100.00
48796;BME280;34607;48.520;-1.330;2024-03-02T08:32:53;97913.94;;;6.93;100.00
48796;BME280;34607;48.520;-1.330;2024-03-02T08:35:20;97922.78;;;6.59;100.00
48796;BME280;34607;48.520;-1.330;2024-03-02T08:37:49;97923.75;;;6.41;100.00
48796;BME280;34607;48.520;-1.330;2024-03-02T08:40:16;97930.69;;;6.28;100.00
48796;BME280;34607;48.520;-1.330;2024-03-02T08:42:43;97923.88;;;6.17;100.00
48796;BME280;34607;48.520;-1.330;2024-03-02T08:45:11;97929.06;;;6.10;100.00
48796;BME280;34607;48.520;-1.330;2024-03-02T08:47:38;97927.31;;;6.16;100.00
48796;BME280;34607;48.520;-1.330;2024-03-02T08:50:07;97939.25;;;6.27;100.00
48796;BME280;34607;48.520;-1.330;2024-03-02T08:52:35;97933.91;;;6.61;100.00
48796;BME280;34607;48.520;-1.330;2024-03-02T08:55:04;97943.44;;;6.48;100.00
48796;BME280;34607;48.520;-1.330;2024-03-02T08:57:32;97932.25;;;6.55;100.00
48796;BME280;34607;48.520;-1.330;2024-03-02T09:00:00;97937.16;;;6.89;100.00
48796;BME280;34607;48.520;-1.330;2024-03-02T09:02:28;97932.81;;;6.94;100.00
48796;BME280;34607;48.520;-1.330;2024-03-02T09:04:55;97937.97;;;6.94;100.00
48796;BME280;34607;48.520;-1.330;2024-03-02T09:07:22;97930.88;;;7.16;100.00
48796;BME280;34607;48.520;-1.330;2024-03-02T09:09:49;97926.28;;;7.49;100.00
48796;BME280;34607;48.520;-1.330;2024-03-02T09:12:18;97928.72;;;7.61;100.00
48796;BME280;34607;48.520;-1.330;2024-03-02T09:14:45;97923.63;;;7.58;100.00
48796;BME280;34607;48.520;-1.330;2024-03-02T09:17:13;97923.31;;;7.83;100.00
48796;BME280;34607;48.520;-1.330;2024-03-02T09:19:40;97926.63;;;7.94;100.00
48796;BME280;34607;48.520;-1.330;2024-03-02T09:22:07;97929.25;;;7.91;100.00
48796;BME280;34607;48.520;-1.330;2024-03-02T09:24:35;97935.09;;;8.04;100.00
48796;BME280;34607;48.520;-1.330;2024-03-02T09:27:02;97935.84;;;8.12;100.00
48796;BME280;34607;48.520;-1.330;2024-03-02T09:29:31;97945.22;;;8.19;100.00
48796;BME280;34607;48.520;-1.330;2024-03-02T09:31:58;97940.50;;;8.52;100.00
48796;BME280;34607;48.520;-1.330;2024-03-02T09:34:25;97943.84;;;8.60;100.00
48796;BME280;34607;48.520;-1.330;2024-03-02T09:36:52;97938.59;;;8.65;100.00
48796;BME280;34607;48.520;-1.330;2024-03-02T09:39:19;97933.34;;;8.71;100.00
48796;BME280;34607;48.520;-1.330;2024-03-02T09:41:47;97933.88;;;8.93;100.00
48796;BME280;34607;48.520;-1.330;2024-03-02T09:44:14;97936.66;;;9.32;100.00
48796;BME280;34607;48.520;-1.330;2024-03-02T09:46:43;97904.69;;;8.90;97.15
48796;BME280;34607;48.520;-1.330;2024-03-02T09:49:12;97928.75;;;9.40;98.88
48796;BME280;34607;48.520;-1.330;2024-03-02T09:51:40;97923.28;;;9.57;96.35
48796;BME280;34607;48.520;-1.330;2024-03-02T09:54:08;97921.09;;;9.82;96.15
48796;BME280;34607;48.520;-1.330;2024-03-02T09:56:35;97932.31;;;9.80;95.07
48796;BME280;34607;48.520;-1.330;2024-03-02T09:59:02;97930.66;;;10.19;95.19
48796;BME280;34607;48.520;-1.330;2024-03-02T10:01:29;97932.03;;;10.37;92.79
48796;BME280;34607;48.520;-1.330;2024-03-02T10:03:59;97935.00;;;10.59;92.21
48796;BME280;34607;48.520;-1.330;2024-03-02T10:06:27;97935.03;;;10.95;92.27
48796;BME280;34607;48.520;-1.330;2024-03-02T10:08:55;97934.69;;;11.09;90.45
48796;BME280;34607;48.520;-1.330;2024-03-02T10:11:29;97936.94;;;10.87;90.04
48796;BME280;34607;48.520;-1.330;2024-03-02T10:14:07;97938.69;;;11.22;90.01
48796;BME280;34607;48.520;-1.330;2024-03-02T10:16:35;97927.22;;;11.64;89.16
48796;BME280;34607;48.520;-1.330;2024-03-02T10:19:20;97937.97;;;11.81;86.41
48796;BME280;34607;48.520;-1.330;2024-03-02T10:21:48;97930.97;;;12.16;87.60
48796;BME280;34607;48.520;-1.330;2024-03-02T10:24:15;97934.31;;;11.89;85.95
48796;BME280;34607;48.520;-1.330;2024-03-02T10:26:42;97935.28;;;11.19;87.96
48796;BME280;34607;48.520;-1.330;2024-03-02T10:29:10;97931.50;;;10.98;89.05
48796;BME280;34607;48.520;-1.330;2024-03-02T10:31:37;97939.25;;;10.62;89.06
48796;BME280;34607;48.520;-1.330;2024-03-02T10:34:05;97940.31;;;10.53;89.67
48796;BME280;34607;48.520;-1.330;2024-03-02T10:36:34;97953.47;;;10.44;89.35
48796;BME280;34607;48.520;-1.330;2024-03-02T10:39:02;97945.06;;;10.33;89.78
48796;BME280;34607;48.520;-1.330;2024-03-02T10:41:32;97954.72;;;10.23;89.36
48796;BME280;34607;48.520;-1.330;2024-03-02T10:44:02;97942.56;;;9.86;89.18
48796;BME280;34607;48.520;-1.330;2024-03-02T10:46:30;97950.22;;;9.90;90.16
48796;BME280;34607;48.520;-1.330;2024-03-02T10:48:58;97949.50;;;10.24;90.80
48796;BME280;34607;48.520;-1.330;2024-03-02T10:51:27;97958.75;;;10.38;90.24
48796;BME280;34607;48.520;-1.330;2024-03-02T10:53:59;97960.94;;;10.56;88.99
48796;BME280;34607;48.520;-1.330;2024-03-02T10:56:29;97958.47;;;10.50;88.85
48796;BME280;34607;48.520;-1.330;2024-03-02T10:59:03;97962.34;;;10.29;88.40
48796;BME280;34607;48.520;-1.330;2024-03-02T11:01:32;97970.50;;;10.10;88.94
48796;BME280;34607;48.520;-1.330;2024-03-02T11:04:02;97964.59;;;10.04;89.60
48796;BME280;34607;48.520;-1.330;2024-03-02T11:06:32;97965.66;;;9.93;89.90
48796;BME280;34607;48.520;-1.330;2024-03-02T11:09:05;97973.53;;;9.87;89.91
48796;BME280;34607;48.520;-1.330;2024-03-02T11:11:36;97963.50;;;9.72;89.96
48796;BME280;34607;48.520;-1.330;2024-03-02T11:14:07;97970.53;;;9.64;90.22
48796;BME280;34607;48.520;-1.330;2024-03-02T11:16:36;97973.56;;;9.39;90.60
48796;BME280;34607;48.520;-1.330;2024-03-02T11:19:05;97976.06;;;9.42;90.89
48796;BME280;34607;48.520;-1.330;2024-03-02T11:21:34;97982.41;;;9.26;91.08
48796;BME280;34607;48.520;-1.330;2024-03-02T11:24:28;97990.63;;;8.95;91.34
48796;BME280;34607;48.520;-1.330;2024-03-02T11:26:58;97996.81;;;8.83;93.50
48796;BME280;34607;48.520;-1.330;2024-03-02T11:29:45;97979.59;;;8.84;93.15
48796;BME280;34607;48.520;-1.330;2024-03-02T11:32:16;97967.44;;;8.92;93.82
48796;BME280;34607;48.520;-1.330;2024-03-02T11:34:45;97979.97;;;9.15;93.79
48796;BME280;34607;48.520;-1.330;2024-03-02T11:37:13;97979.69;;;9.32;94.05
48796;BME280;34607;48.520;-1.330;2024-03-02T11:39:44;97969.84;;;9.54;93.83
48796;BME280;34607;48.520;-1.330;2024-03-02T11:42:12;97972.63;;;9.88;93.50
48796;BME280;34607;48.520;-1.330;2024-03-02T11:44:43;97967.13;;;10.07;92.89
48796;BME280;34607;48.520;-1.330;2024-03-02T11:47:11;97955.72;;;10.16;92.02
48796;BME280;34607;48.520;-1.330;2024-03-02T11:49:42;97954.63;;;10.27;91.99
48796;BME280;34607;48.520;-1.330;2024-03-02T11:52:11;97963.63;;;10.52;91.10
48796;BME280;34607;48.520;-1.330;2024-03-02T11:54:39;97964.25;;;10.63;90.13
48796;BME280;34607;48.520;-1.330;2024-03-02T11:57:16;97961.31;;;10.78;89.86
48796;BME280;34607;48.520;-1.330;2024-03-02T11:59:43;97965.25;;;10.93;89.03
48796;BME280;34607;48.520;-1.330;2024-03-02T12:02:18;97957.56;;;10.92;88.56
48796;BME280;34607;48.520;-1.330;2024-03-02T12:04:45;97974.00;;;10.89;87.98
48796;BME280;34607;48.520;-1.330;2024-03-02T12:07:19;97966.28;;;10.86;87.88
48796;BME280;34607;48.520;-1.330;2024-03-02T12:09:48;97966.44;;;10.81;88.80
48796;BME280;34607;48.520;-1.330;2024-03-02T12:12:17;97965.84;;;11.06;88.52
48796;BME280;34607;48.520;-1.330;2024-03-02T12:14:50;97955.78;;;11.28;87.53
48796;BME280;34607;48.520;-1.330;2024-03-02T12:17:17;97949.81;;;11.59;86.54
48796;BME280;34607;48.520;-1.330;2024-03-02T12:19:44;97954.56;;;11.76;83.92
48796;BME280;34607;48.520;-1.330;2024-03-02T12:22:12;97955.56;;;11.70;83.57
48796;BME280;34607;48.520;-1.330;2024-03-02T12:24:39;97948.81;;;11.65;83.09
48796;BME280;34607;48.520;-1.330;2024-03-02T12:27:06;97953.28;;;11.58;83.35
48796;BME280;34607;48.520;-1.330;2024-03-02T12:29:35;97942.38;;;11.47;83.42
48796;BME280;34607;48.520;-1.330;2024-03-02T12:32:02;97940.94;;;11.35;83.41
48796;BME280;34607;48.520;-1.330;2024-03-02T12:34:29;97943.66;;;11.30;82.65
48796;BME280;34607;48.520;-1.330;2024-03-02T12:36:56;97948.19;;;11.20;82.58
48796;BME280;34607;48.520;-1.330;2024-03-02T12:39:23;97949.16;;;11.18;82.44
48796;BME280;34607;48.520;-1.330;2024-03-02T12:41:51;97891.38;;;10.80;82.64
48796;BME280;34607;48.520;-1.330;2024-03-02T12:44:19;97948.06;;;10.91;82.63
48796;BME280;34607;48.520;-1.330;2024-03-02T12:46:48;97946.69;;;10.76;82.78
48796;BME280;34607;48.520;-1.330;2024-03-02T12:49:16;97950.19;;;10.75;83.32
48796;BME280;34607;48.520;-1.330;2024-03-02T12:51:43;97950.44;;;10.62;84.06
48796;BME280;34607;48.520;-1.330;2024-03-02T12:54:12;97963.59;;;10.53;85.21
48796;BME280;34607;48.520;-1.330;2024-03-02T12:56:41;97964.34;;;10.58;85.65
48796;BME280;34607;48.520;-1.330;2024-03-02T12:59:17;97959.75;;;10.30;84.00
48796;BME280;34607;48.520;-1.330;2024-03-02T13:01:51;97953.38;;;10.05;84.16
48796;BME280;34607;48.520;-1.330;2024-03-02T13:04:22;97949.72;;;10.15;85.25
48796;BME280;34607;48.520;-1.330;2024-03-02T13:06:49;97957.28;;;10.24;85.30
48796;BME280;34607;48.520;-1.330;2024-03-02T13:09:17;97950.16;;;10.37;85.27
48796;BME280;34607;48.520;-1.330;2024-03-02T13:11:44;97952.56;;;10.45;85.49
48796;BME280;34607;48.520;-1.330;2024-03-02T13:14:12;97951.97;;;10.32;85.87
48796;BME280;34607;48.520;-1.330;2024-03-02T13:16:39;97950.56;;;10.16;86.37
48796;BME280;34607;48.520;-1.330;2024-03-02T13:19:08;97949.16;;;10.01;87.40
48796;BME280;34607;48.520;-1.330;2024-03-02T13:21:35;97954.47;;;9.93;88.21
48796;BME280;34607;48.520;-1.330;2024-03-02T13:24:03;97951.16;;;9.86;88.28
48796;BME280;34607;48.520;-1.330;2024-03-02T13:26:30;97954.75;;;9.78;88.37
48796;BME280;34607;48.520;-1.330;2024-03-02T13:28:58;97953.97;;;9.74;88.41
48796;BME280;34607;48.520;-1.330;2024-03-02T13:31:25;97958.13;;;9.83;87.85
48796;BME280;34607;48.520;-1.330;2024-03-02T13:33:52;97959.81;;;9.85;87.79
48796;BME280;34607;48.520;-1.330;2024-03-02T13:36:20;97971.03;;;10.26;88.27
48796;BME280;34607;48.520;-1.330;2024-03-02T13:38:47;97968.41;;;10.28;87.02
48796;BME280;34607;48.520;-1.330;2024-03-02T13:41:14;97974.66;;;10.18;86.91
48796;BME280;34607;48.520;-1.330;2024-03-02T13:43:41;97970.16;;;10.26;87.21
48796;BME280;34607;48.520;-1.330;2024-03-02T13:46:10;97975.69;;;10.53;87.30
48796;BME280;34607;48.520;-1.330;2024-03-02T13:48:37;97974.03;;;10.87;86.88
48796;BME280;34607;48.520;-1.330;2024-03-02T13:51:04;97967.66;;;11.02;86.45
48796;BME280;34607;48.520;-1.330;2024-03-02T13:53:34;97982.53;;;11.29;85.56
48796;BME280;34607;48.520;-1.330;2024-03-02T13:56:02;97986.09;;;11.59;84.89
48796;BME280;34607;48.520;-1.330;2024-03-02T13:58:30;97991.59;;;11.12;83.75
48796;BME280;34607;48.520;-1.330;2024-03-02T14:00:57;97992.75;;;11.00;84.38
48796;BME280;34607;48.520;-1.330;2024-03-02T14:03:24;97980.69;;;10.60;84.71
48796;BME280;34607;48.520;-1.330;2024-03-02T14:05:53;97981.50;;;10.62;84.79
48796;BME280;34607;48.520;-1.330;2024-03-02T14:08:21;97988.09;;;10.76;84.50
48796;BME280;34607;48.520;-1.330;2024-03-02T14:10:50;97987.31;;;11.10;83.82
48796;BME280;34607;48.520;-1.330;2024-03-02T14:13:17;97983.13;;;10.68;82.10
48796;BME280;34607;48.520;-1.330;2024-03-02T14:15:44;97981.56;;;10.61;82.91
48796;BME280;34607;48.520;-1.330;2024-03-02T14:18:11;97989.13;;;10.68;82.86
48796;BME280;34607;48.520;-1.330;2024-03-02T14:20:38;97990.09;;;10.64;82.56
48796;BME280;34607;48.520;-1.330;2024-03-02T14:23:07;97996.38;;;10.53;81.90
48796;BME280;34607;48.520;-1.330;2024-03-02T14:25:35;98004.19;;;10.51;81.94
48796;BME280;34607;48.520;-1.330;2024-03-02T14:28:04;98000.84;;;10.46;81.67
48796;BME280;34607;48.520;-1.330;2024-03-02T14:30:31;98001.88;;;10.37;81.29
48796;BME280;34607;48.520;-1.330;2024-03-02T14:32:59;98007.00;;;10.40;80.80
48796;BME280;34607;48.520;-1.330;2024-03-02T14:35:26;98001.97;;;10.73;81.16
48796;BME280;34607;48.520;-1.330;2024-03-02T14:37:54;97995.50;;;10.93;80.37
48796;BME280;34607;48.520;-1.330;2024-03-02T14:40:23;98006.50;;;11.02;79.04
48796;BME280;34607;48.520;-1.330;2024-03-02T14:42:52;98009.81;;;11.08;78.40
48796;BME280;34607;48.520;-1.330;2024-03-02T14:45:20;98003.63;;;11.13;77.60
48796;BME280;34607;48.520;-1.330;2024-03-02T14:47:49;97992.94;;;11.27;77.17
48796;BME280;34607;48.520;-1.330;2024-03-02T14:50:16;98001.81;;;11.53;76.82
48796;BME280;34607;48.520;-1.330;2024-03-02T14:52:44;98001.44;;;11.32;75.12
48796;BME280;34607;48.520;-1.330;2024-03-02T14:55:12;97998.31;;;11.19;75.20
48796;BME280;34607;48.520;-1.330;2024-03-02T14:57:39;98007.81;;;11.19;75.45
48796;BME280;34607;48.520;-1.330;2024-03-02T15:00:06;98002.81;;;11.47;75.56
48796;BME280;34607;48.520;-1.330;2024-03-02T15:02:35;98005.88;;;11.63;74.39
48796;BME280;34607;48.520;-1.330;2024-03-02T15:05:03;98001.31;;;11.38;74.07
48796;BME280;34607;48.520;-1.330;2024-03-02T15:07:31;98005.59;;;11.39;74.33
48796;BME280;34607;48.520;-1.330;2024-03-02T15:09:58;98005.16;;;11.22;74.10
48796;BME280;34607;48.520;-1.330;2024-03-02T15:12:25;98006.31;;;11.09;74.68
48796;BME280;34607;48.520;-1.330;2024-03-02T15:14:53;98016.00;;;11.02;74.04
48796;BME280;34607;48.520;-1.330;2024-03-02T15:17:20;98019.91;;;10.81;74.38
48796;BME280;34607;48.520;-1.330;2024-03-02T15:19:48;98017.31;;;10.81;74.35
48796;BME280;34607;48.520;-1.330;2024-03-02T15:22:15;98010.03;;;10.98;74.43
48796;BME280;34607;48.520;-1.330;2024-03-02T15:24:42;98005.97;;;10.49;73.87
48796;BME280;34607;48.520;-1.330;2024-03-02T15:27:09;98002.34;;;10.56;75.06
48796;BME280;34607;48.520;-1.330;2024-03-02T15:29:36;98002.47;;;10.89;74.59
48796;BME280;34607;48.520;-1.330;2024-03-02T15:32:04;97998.72;;;11.02;74.40
48796;BME280;34607;48.520;-1.330;2024-03-02T15:34:32;98003.56;;;10.79;74.25
48796;BME280;34607;48.520;-1.330;2024-03-02T15:37:01;98001.78;;;10.81;74.75
48796;BME280;34607;48.520;-1.330;2024-03-02T15:39:29;98007.13;;;10.75;73.47
48796;BME280;34607;48.520;-1.330;2024-03-02T15:41:56;98016.13;;;10.96;73.88
48796;BME280;34607;48.520;-1.330;2024-03-02T15:44:23;98020.38;;;10.98;72.96
48796;BME280;34607;48.520;-1.330;2024-03-02T15:46:50;98020.16;;;11.09;73.86
48796;BME280;34607;48.520;-1.330;2024-03-02T15:49:17;98020.47;;;10.95;72.66
48796;BME280;34607;48.520;-1.330;2024-03-02T15:51:44;98029.38;;;10.83;73.56
48796;BME280;34607;48.520;-1.330;2024-03-02T15:54:13;98019.09;;;10.79;73.59
48796;BME280;34607;48.520;-1.330;2024-03-02T15:56:40;98022.09;;;10.60;73.54
48796;BME280;34607;48.520;-1.330;2024-03-02T15:59:07;98019.78;;;10.46;73.92
48796;BME280;34607;48.520;-1.330;2024-03-02T16:01:34;98023.19;;;10.48;73.90
48796;BME280;34607;48.520;-1.330;2024-03-02T16:04:02;98014.78;;;10.39;73.96
48796;BME280;34607;48.520;-1.330;2024-03-02T16:06:29;98016.75;;;10.24;74.97
48796;BME280;34607;48.520;-1.330;2024-03-02T16:08:56;98015.69;;;10.36;75.28
48796;BME280;34607;48.520;-1.330;2024-03-02T16:11:26;98006.06;;;10.43;75.02
48796;BME280;34607;48.520;-1.330;2024-03-02T16:13:53;98006.31;;;10.29;74.75
48796;BME280;34607;48.520;-1.330;2024-03-02T16:16:20;98012.31;;;10.33;75.29
48796;BME280;34607;48.520;-1.330;2024-03-02T16:18:47;98009.19;;;10.15;75.50
48796;BME280;34607;48.520;-1.330;2024-03-02T16:21:14;98006.63;;;10.13;75.92
48796;BME280;34607;48.520;-1.330;2024-03-02T16:23:42;98007.56;;;10.11;75.95
48796;BME280;34607;48.520;-1.330;2024-03-02T16:26:09;98014.59;;;10.04;76.10
48796;BME280;34607;48.520;-1.330;2024-03-02T16:28:38;98018.59;;;9.72;76.21
48796;BME280;34607;48.520;-1.330;2024-03-02T16:31:06;98024.78;;;9.64;76.74
48796;BME280;34607;48.520;-1.330;2024-03-02T16:33:34;98032.75;;;9.53;76.91
48796;BME280;34607;48.520;-1.330;2024-03-02T16:36:01;98042.16;;;9.55;77.24
48796;BME280;34607;48.520;-1.330;2024-03-02T16:38:28;98047.19;;;9.65;77.34
48796;BME280;34607;48.520;-1.330;2024-03-02T16:40:55;98059.13;;;9.72;77.60
48796;BME280;34607;48.520;-1.330;2024-03-02T16:43:22;98057.53;;;9.65;77.38
48796;BME280;34607;48.520;-1.330;2024-03-02T16:45:51;98064.75;;;9.44;77.39
48796;BME280;34607;48.520;-1.330;2024-03-02T16:48:18;98063.22;;;9.31;77.76
48796;BME280;34607;48.520;-1.330;2024-03-02T16:50:45;98043.72;;;9.11;77.86
48796;BME280;34607;48.520;-1.330;2024-03-02T16:53:12;98053.88;;;9.24;78.30
48796;BME280;34607;48.520;-1.330;2024-03-02T16:55:41;98056.47;;;9.24;78.39
48796;BME280;34607;48.520;-1.330;2024-03-02T16:58:08;98058.25;;;9.18;78.61
48796;BME280;34607;48.520;-1.330;2024-03-02T17:00:35;98057.41;;;9.16;78.90
48796;BME280;34607;48.520;-1.330;2024-03-02T17:03:05;98054.91;;;9.12;79.22
48796;BME280;34607;48.520;-1.330;2024-03-02T17:05:33;98065.22;;;9.13;79.78
48796;BME280;34607;48.520;-1.330;2024-03-02T17:08:00;98060.13;;;9.07;80.00
48796;BME280;34607;48.520;-1.330;2024-03-02T17:10:27;98067.72;;;9.16;79.82
48796;BME280;34607;48.520;-1.330;2024-03-02T17:12:54;98066.03;;;9.15;79.96
48796;BME280;34607;48.520;-1.330;2024-03-02T17:15:25;98079.88;;;9.10;80.12
48796;BME280;34607;48.520;-1.330;2024-03-02T17:17:55;98085.09;;;9.08;80.40
48796;BME280;34607;48.520;-1.330;2024-03-02T17:20:23;98089.47;;;9.03;80.50
48796;BME280;34607;48.520;-1.330;2024-03-02T17:22:50;98099.03;;;8.95;80.83
48796;BME280;34607;48.520;-1.330;2024-03-02T17:25:17;98101.69;;;8.87;81.16
48796;BME280;34607;48.520;-1.330;2024-03-02T17:27:44;98109.59;;;8.75;81.17
48796;BME280;34607;48.520;-1.330;2024-03-02T17:30:12;98118.34;;;8.61;81.67
48796;BME280;34607;48.520;-1.330;2024-03-02T17:32:40;98119.28;;;8.56;81.95
48796;BME280;34607;48.520;-1.330;2024-03-02T17:35:07;98129.75;;;8.45;82.23
48796;BME280;34607;48.520;-1.330;2024-03-02T17:37:36;98130.56;;;8.49;82.50
48796;BME280;34607;48.520;-1.330;2024-03-02T17:40:06;98128.88;;;8.44;82.62
48796;BME280;34607;48.520;-1.330;2024-03-02T17:42:35;98129.78;;;8.36;82.90
48796;BME280;34607;48.520;-1.330;2024-03-02T17:45:02;98123.00;;;8.27;83.24
48796;BME280;34607;48.520;-1.330;2024-03-02T17:47:31;98133.41;;;8.21;83.52
48796;BME280;34607;48.520;-1.330;2024-03-02T17:49:58;98136.03;;;8.13;83.99
48796;BME280;34607;48.520;-1.330;2024-03-02T17:52:25;98136.06;;;8.10;84.14
48796;BME280;34607;48.520;-1.330;2024-03-02T17:54:53;98148.19;;;8.00;84.49
48796;BME280;34607;48.520;-1.330;2024-03-02T17:57:20;98148.25;;;7.94;84.75
48796;BME280;34607;48.520;-1.330;2024-03-02T17:59:48;98158.56;;;7.91;85.01
48796;BME280;34607;48.520;-1.330;2024-03-02T18:02:15;98162.91;;;7.84;85.43
48796;BME280;34607;48.520;-1.330;2024-03-02T18:04:42;98168.97;;;7.82;85.51
48796;BME280;34607;48.520;-1.330;2024-03-02T18:07:09;98177.59;;;7.76;85.57
48796;BME280;34607;48.520;-1.330;2024-03-02T18:09:36;98173.31;;;7.74;85.82
48796;BME280;34607;48.520;-1.330;2024-03-02T18:12:05;98182.78;;;7.68;85.97
48796;BME280;34607;48.520;-1.330;2024-03-02T18:14:32;98178.53;;;7.64;86.14
48796;BME280;34607;48.520;-1.330;2024-03-02T18:16:59;98191.44;;;7.64;86.33
48796;BME280;34607;48.520;-1.330;2024-03-02T18:19:26;98187.13;;;7.62;86.44
48796;BME280;34607;48.520;-1.330;2024-03-02T18:21:55;98198.34;;;7.56;86.55
48796;BME280;34607;48.520;-1.330;2024-03-02T18:24:22;98195.78;;;7.48;86.83
48796;BME280;34607;48.520;-1.330;2024-03-02T18:26:53;98199.28;;;7.43;87.01
48796;BME280;34607;48.520;-1.330;2024-03-02T18:29:21;98195.81;;;7.47;87.02
48796;BME280;34607;48.520;-1.330;2024-03-02T18:31:48;98180.44;;;7.35;87.00
48796;BME280;34607;48.520;-1.330;2024-03-02T18:34:15;98206.19;;;7.35;87.50
48796;BME280;34607;48.520;-1.330;2024-03-02T18:36:43;98209.66;;;7.26;87.78
48796;BME280;34607;48.520;-1.330;2024-03-02T18:39:10;98209.72;;;7.15;88.29
48796;BME280;34607;48.520;-1.330;2024-03-02T18:41:37;98205.47;;;7.09;88.53
48796;BME280;34607;48.520;-1.330;2024-03-02T18:44:04;98203.75;;;7.07;88.74
48796;BME280;34607;48.520;-1.330;2024-03-02T18:46:32;98198.59;;;7.04;88.93
48796;BME280;34607;48.520;-1.330;2024-03-02T18:49:00;98213.19;;;7.08;88.88
48796;BME280;34607;48.520;-1.330;2024-03-02T18:51:27;98214.03;;;7.07;88.90
48796;BME280;34607;48.520;-1.330;2024-03-02T18:53:54;98210.63;;;7.03;89.20
48796;BME280;34607;48.520;-1.330;2024-03-02T18:56:21;98226.94;;;6.99;89.06
48796;BME280;34607;48.520;-1.330;2024-03-02T18:58:48;98226.13;;;6.94;89.49
48796;BME280;34607;48.520;-1.330;2024-03-02T19:01:15;98226.97;;;6.93;89.55
48796;BME280;34607;48.520;-1.330;2024-03-02T19:03:44;98234.72;;;6.84;89.46
48796;BME280;34607;48.520;-1.330;2024-03-02T19:06:13;98235.56;;;6.81;89.63
48796;BME280;34607;48.520;-1.330;2024-03-02T19:08:41;98245.84;;;6.78;89.80
48796;BME280;34607;48.520;-1.330;2024-03-02T19:11:12;98258.75;;;6.73;89.65
48796;BME280;34607;48.520;-1.330;2024-03-02T19:13:39;98261.31;;;6.67;90.00
48796;BME280;34607;48.520;-1.330;2024-03-02T19:16:09;98257.03;;;6.65;89.95
48796;BME280;34607;48.520;-1.330;2024-03-02T19:18:37;98264.75;;;6.59;90.13
48796;BME280;34607;48.520;-1.330;2024-03-02T19:21:06;98269.91;;;6.62;90.13
48796;BME280;34607;48.520;-1.330;2024-03-02T19:23:33;98276.75;;;6.63;90.13
48796;BME280;34607;48.520;-1.330;2024-03-02T19:26:00;98280.16;;;6.65;90.01
48796;BME280;34607;48.520;-1.330;2024-03-02T19:28:27;98284.47;;;6.72;89.83
48796;BME280;34607;48.520;-1.330;2024-03-02T19:30:55;98273.34;;;6.67;89.67
48796;BME280;34607;48.520;-1.330;2024-03-02T19:33:22;98288.72;;;6.70;89.82
48796;BME280;34607;48.520;-1.330;2024-03-02T19:35:49;98292.19;;;6.72;89.77
48796;BME280;34607;48.520;-1.330;2024-03-02T19:38:17;98291.34;;;6.68;89.70
48796;BME280;34607;48.520;-1.330;2024-03-02T19:40:45;98295.63;;;6.59;89.79
48796;BME280;34607;48.520;-1.330;2024-03-02T19:43:12;98304.19;;;6.45;90.07
48796;BME280;34607;48.520;-1.330;2024-03-02T19:45:43;98302.47;;;6.30;90.38
48796;BME280;34607;48.520;-1.330;2024-03-02T19:48:10;98283.63;;;6.11;90.58
48796;BME280;34607;48.520;-1.330;2024-03-02T19:50:37;98302.47;;;6.18;91.13
48796;BME280;34607;48.520;-1.330;2024-03-02T19:53:05;98305.03;;;6.13;90.97
48796;BME280;34607;48.520;-1.330;2024-03-02T19:55:34;98304.19;;;6.14;91.59
48796;BME280;34607;48.520;-1.330;2024-03-02T19:58:02;98299.03;;;6.11;90.99
48796;BME280;34607;48.520;-1.330;2024-03-02T20:00:29;98303.31;;;6.02;91.29
48796;BME280;34607;48.520;-1.330;2024-03-02T20:02:56;98302.44;;;5.95;91.11
48796;BME280;34607;48.520;-1.330;2024-03-02T20:05:24;98310.13;;;5.92;91.46
48796;BME280;34607;48.520;-1.330;2024-03-02T20:07:51;98307.50;;;5.82;91.30
48796;BME280;34607;48.520;-1.330;2024-03-02T20:10:18;98313.53;;;5.81;91.52
48796;BME280;34607;48.520;-1.330;2024-03-02T20:12:47;98314.34;;;5.77;92.09
48796;BME280;34607;48.520;-1.330;2024-03-02T20:15:14;98317.81;;;5.79;92.02
48796;BME280;34607;48.520;-1.330;2024-03-02T20:17:44;98319.50;;;5.84;92.02
48796;BME280;34607;48.520;-1.330;2024-03-02T20:20:12;98317.81;;;5.81;91.83
48796;BME280;34607;48.520;-1.330;2024-03-02T20:22:41;98316.06;;;5.75;91.90
48796;BME280;34607;48.520;-1.330;2024-03-02T20:25:08;98329.75;;;5.71;92.01
48796;BME280;34607;48.520;-1.330;2024-03-02T20:27:37;98327.16;;;5.67;92.09
48796;BME280;34607;48.520;-1.330;2024-03-02T20:30:10;98323.75;;;5.69;92.02
48796;BME280;34607;48.520;-1.330;2024-03-02T20:32:38;98308.31;;;5.55;91.95
48796;BME280;34607;48.520;-1.330;2024-03-02T20:35:06;98334.84;;;5.65;91.61
48796;BME280;34607;48.520;-1.330;2024-03-02T20:37:33;98333.97;;;5.58;91.56
48796;BME280;34607;48.520;-1.330;2024-03-02T20:40:00;98338.25;;;5.55;91.94
48796;BME280;34607;48.520;-1.330;2024-03-02T20:42:27;98339.97;;;5.57;92.00
48796;BME280;34607;48.520;-1.330;2024-03-02T20:44:54;98341.69;;;5.54;91.93